Time;durP1;ratioP1;P1;durP2;ratioP2;P2;SDS_P1;SDS_P2;PMS_P1;PMS_P2;Temp;Humidity;BMP_temperature;BMP_pressure;BME280_temperature;BME280_humidity;BME280_pressure;Samples;Min_cycle;Max_cycle;Signal;HPM_P1;HPM_P2
2022/04/22 00:01:58;;;;;;;17.48;9.10;;;;;;;14.80;46.84;97305.16;4425701;32;20138;-79
2022/04/22 00:04:32;;;;;;;16.77;8.70;;;;;;;15.20;45.61;97297.91;4425552;32;20155;-79
2022/04/22 00:07:00;;;;;;;14.57;7.80;;;;;;;14.86;46.60;97294.31;4425371;32;20126;-79
2022/04/22 00:09:27;;;;;;;18.23;8.77;;;;;;;16.11;46.37;97285.00;4425541;32;20078;-79
2022/04/22 00:11:54;;;;;;;16.77;8.68;;;;;;;16.64;45.48;97285.19;4425685;32;20157;-80
2022/04/22 00:14:22;;;;;;;16.73;8.13;;;;;;;16.47;45.90;97287.34;4425103;32;20473;-80
2022/04/22 00:16:49;;;;;;;14.95;7.75;;;;;;;15.85;46.00;97285.25;4425542;32;20452;-80
2022/04/22 00:19:17;;;;;;;15.82;8.60;;;;;;;14.89;46.89;97281.97;4425480;32;20082;-80
2022/04/22 00:21:47;;;;;;;16.00;8.88;;;;;;;14.96;46.28;97279.72;4425309;32;20133;-80
2022/04/22 00:24:16;;;;;;;16.40;8.80;;;;;;;15.21;46.20;97281.41;4425504;32;20567;-80
2022/04/22 00:26:43;;;;;;;14.40;8.07;;;;;;;15.10;47.88;97282.19;4425628;32;20127;-80
2022/04/22 00:29:10;;;;;;;15.88;8.30;;;;;;;14.85;49.17;97282.28;4425031;32;20082;-80
2022/04/22 00:31:37;;;;;;;16.00;7.72;;;;;;;15.39;48.12;97268.78;4424603;32;20146;-80
2022/04/22 00:34:05;;;;;;;18.83;9.38;;;;;;;15.05;47.94;97273.88;4425356;32;20111;-79
2022/04/22 00:36:32;;;;;;;16.25;8.82;;;;;;;14.53;50.16;97269.00;4411465;32;20086;-79
2022/04/22 00:38:59;;;;;;;18.02;8.80;;;;;;;14.30;49.91;97270.59;4425315;32;20093;-79
2022/04/22 00:41:26;;;;;;;17.98;8.32;;;;;;;14.14;49.97;97263.88;4411252;32;20116;-79
2022/04/22 00:43:54;;;;;;;16.35;8.73;;;;;;;14.24;48.60;97260.62;4425306;32;20117;-79
2022/04/22 00:46:21;;;;;;;17.90;9.15;;;;;;;15.57;45.25;97257.84;4425328;32;20151;-79
2022/04/22 00:48:48;;;;;;;17.40;9.18;;;;;;;16.48;44.91;97260.38;4424960;32;20220;-79
2022/04/22 00:51:18;;;;;;;16.87;8.77;;;;;;;16.27;44.93;97256.84;4425356;32;20448;-79
2022/04/22 00:53:49;;;;;;;15.57;8.50;;;;;;;15.24;47.13;97258.59;4425423;32;20380;-80
2022/04/22 00:56:16;;;;;;;17.05;8.75;;;;;;;15.80;44.96;97253.53;4424871;32;20196;-80
2022/04/22 00:58:45;;;;;;;17.58;9.65;;;;;;;15.67;45.25;97249.37;4425343;32;20407;-80
2022/04/22 01:01:12;;;;;;;15.45;8.38;;;;;;;15.83;43.84;97248.09;4425309;32;20397;-80
2022/04/22 01:09:46;;;;;;;15.82;8.60;;;;;;;15.95;43.09;97248.09;4424784;32;20112;-80
2022/04/22 01:12:11;;;;;;;17.05;9.20;;;;;;;14.87;45.97;97228.44;4425373;32;20094;-79
2022/04/22 01:14:39;;;;;;;17.67;9.05;;;;;;;15.22;45.65;97231.91;4425163;32;20105;-79
2022/04/22 01:17:06;;;;;;;21.12;9.10;;;;;;;15.48;45.14;97235.13;4424902;32;20136;-79
2022/04/22 01:19:33;;;;;;;18.92;9.75;;;;;;;15.71;44.56;97233.41;4424934;32;20129;-80
2022/04/22 01:22:01;;;;;;;17.75;8.75;;;;;;;16.28;43.38;97226.44;4411338;32;20168;-80
2022/04/22 01:24:28;;;;;;;18.23;9.25;;;;;;;16.49;42.64;97233.38;4424611;32;20097;-80
2022/04/22 01:26:56;;;;;;;17.98;9.75;;;;;;;15.70;42.87;97216.16;4425173;32;20124;-80
2022/04/22 01:29:23;;;;;;;17.40;9.07;;;;;;;15.29;43.41;97222.69;4424998;32;20150;-80
2022/04/22 01:31:50;;;;;;;19.75;9.05;;;;;;;14.57;45.66;97218.50;4424436;32;20086;-80
2022/04/22 01:34:17;;;;;;;16.48;8.70;;;;;;;15.21;44.20;97222.44;4411165;32;20167;-80
2022/04/22 01:36:44;;;;;;;18.90;8.75;;;;;;;14.91;44.71;97211.72;4424970;32;20140;-79
2022/04/22 01:39:11;;;;;;;17.85;9.10;;;;;;;14.31;45.84;97207.38;4424427;32;20082;-79
2022/04/22 01:41:38;;;;;;;19.45;9.15;;;;;;;14.00;46.41;97196.56;4424931;32;20141;-79
2022/04/22 01:44:05;;;;;;;19.98;9.07;;;;;;;14.86;44.59;97209.44;4424615;32;20227;-79
2022/04/22 01:46:32;;;;;;;18.15;9.40;;;;;;;15.24;43.39;97198.81;4424478;32;20103;-79
2022/04/22 01:48:59;;;;;;;18.30;8.93;;;;;;;14.99;43.59;97193.78;4410924;32;20153;-79
2022/04/22 01:51:26;;;;;;;18.60;9.50;;;;;;;15.29;43.33;97190.66;4424745;32;20165;-79
2022/04/22 01:53:53;;;;;;;18.48;8.68;;;;;;;15.16;43.73;97195.13;4424510;32;20090;-79
2022/04/22 01:56:21;;;;;;;18.17;8.68;;;;;;;15.05;43.91;97186.38;4424301;32;20130;-79
2022/04/22 01:58:48;;;;;;;20.80;9.00;;;;;;;14.89;45.02;97179.84;4424285;32;20138;-79
2022/04/22 02:01:15;;;;;;;18.25;8.73;;;;;;;14.17;46.42;97172.87;4424652;32;20146;-79
2022/04/22 02:03:42;;;;;;;17.85;9.00;;;;;;;14.36;46.31;97171.56;4424650;32;20151;-79
2022/04/22 02:06:09;;;;;;;18.17;9.18;;;;;;;14.36;44.93;97172.41;4424085;32;20107;-79
2022/04/22 02:08:39;;;;;;;16.75;8.80;;;;;;;14.08;45.24;97173.53;4424492;32;20457;-79
2022/04/22 02:11:06;;;;;;;17.50;9.15;;;;;;;14.06;45.33;97161.59;4424581;32;20157;-79
2022/04/22 02:13:38;;;;;;;18.62;9.05;;;;;;;13.90;45.64;97160.06;4424179;32;20109;-79
2022/04/22 02:16:07;;;;;;;16.17;8.52;;;;;;;13.70;46.77;97159.81;4424417;32;20093;-79
2022/04/22 02:18:37;;;;;;;22.35;10.20;;;;;;;13.60;48.15;97154.41;4424436;32;20077;-79
2022/04/22 02:21:05;;;;;;;19.00;9.80;;;;;;;14.16;47.07;97162.59;4423904;32;20113;-79
2022/04/22 02:23:33;;;;;;;19.27;9.55;;;;;;;14.22;46.79;97156.97;4424284;32;20086;-79
2022/04/22 02:26:00;;;;;;;18.25;9.68;;;;;;;14.83;45.50;97159.50;4424028;32;20086;-79
2022/04/22 02:28:36;;;;;;;18.60;9.63;;;;;;;13.86;47.29;97152.63;4423865;32;20108;-80
2022/04/22 02:31:10;;;;;;;20.83;9.40;;;;;;;13.27;48.09;97158.37;4424297;32;20468;-80
2022/04/22 02:33:39;;;;;;;20.45;10.00;;;;;;;12.24;50.58;97154.84;4424159;32;20102;-80
2022/04/22 02:36:06;;;;;;;19.08;9.60;;;;;;;11.94;52.21;97150.69;4424014;32;20152;-79
2022/04/22 02:38:33;;;;;;;20.90;10.52;;;;;;;11.61;53.71;97145.81;4424074;32;20073;-79
2022/04/22 02:46:32;;;;;;;20.45;10.75;;;;;;;13.63;49.71;97149.03;4423911;32;20086;-79
2022/04/22 02:49:00;;;;;;;19.33;9.93;;;;;;;14.03;49.53;97144.47;4423529;32;20120;-79
2022/04/22 02:51:28;;;;;;;19.58;10.38;;;;;;;14.23;49.52;97142.22;4410180;32;20120;-79
2022/04/22 02:53:55;;;;;;;21.33;10.70;;;;;;;14.65;48.41;97146.94;4423967;32;20590;-79
2022/04/22 02:56:22;;;;;;;19.67;9.82;;;;;;;15.33;47.17;97151.34;4425306;32;20434;-79
2022/04/22 02:58:49;;;;;;;20.42;10.88;;;;;;;15.63;46.49;97150.00;4426023;32;20146;-79
2022/04/22 03:01:16;;;;;;;20.70;11.30;;;;;;;15.83;45.92;97148.41;4426139;32;20116;-79
2022/04/22 03:03:44;;;;;;;20.85;10.52;;;;;;;15.66;45.95;97148.91;4425904;32;20531;-79
2022/04/22 03:06:11;;;;;;;21.87;10.93;;;;;;;15.62;45.35;97150.91;4425769;32;20101;-79
2022/04/22 03:08:38;;;;;;;21.75;11.00;;;;;;;15.81;44.68;97147.72;4426045;32;20573;-79
2022/04/22 03:11:05;;;;;;;20.85;10.57;;;;;;;16.03;44.33;97152.06;4425572;32;20094;-79
2022/04/22 03:13:33;;;;;;;19.98;10.95;;;;;;;15.97;43.43;97149.97;4425965;32;20106;-79
2022/04/22 03:16:02;;;;;;;21.87;10.80;;;;;;;15.64;43.66;97143.84;4425457;32;20770;-79
2022/04/22 03:18:29;;;;;;;20.90;11.05;;;;;;;13.90;47.24;97141.09;4425989;32;20097;-79
2022/04/22 03:20:57;;;;;;;21.60;10.95;;;;;;;13.70;48.47;97137.28;4412275;32;20145;-79
2022/04/22 03:23:24;;;;;;;20.12;10.75;;;;;;;14.38;46.46;97141.97;4425806;32;20128;-80
2022/04/22 03:25:54;;;;;;;21.87;11.05;;;;;;;13.79;50.58;97141.00;4425760;32;20499;-80
2022/04/22 03:28:22;;;;;;;20.05;10.70;;;;;;;14.22;49.04;97143.16;4425872;32;20109;-80
2022/04/22 03:30:50;;;;;;;29.92;11.77;;;;;;;14.61;47.32;97135.13;4425457;32;20157;-80
2022/04/22 03:33:18;;;;;;;26.27;12.45;;;;;;;13.43;50.03;97131.44;4412317;32;20511;-80
2022/04/22 03:35:50;;;;;;;25.23;11.90;;;;;;;14.07;47.46;97125.19;4425537;32;20107;-80
2022/04/22 03:38:19;;;;;;;23.67;11.18;;;;;;;13.51;50.96;97122.22;4425397;32;20108;-80
2022/04/22 03:40:50;;;;;;;20.70;10.63;;;;;;;14.02;50.69;97121.25;4425806;32;20103;-80
2022/04/22 03:43:17;;;;;;;23.30;11.48;;;;;;;14.24;51.05;97116.16;4425827;32;20142;-79
2022/04/22 03:45:44;;;;;;;20.00;10.68;;;;;;;13.42;52.44;97112.47;4425263;32;20104;-79
2022/04/22 03:48:13;;;;;;;25.17;12.27;;;;;;;12.83;53.78;97109.53;4425716;32;20100;-79
2022/04/22 03:50:41;;;;;;;23.73;12.02;;;;;;;11.76;58.67;97106.09;4425740;32;20145;-79
2022/04/22 03:53:11;;;;;;;24.63;11.98;;;;;;;12.45;56.68;97110.31;4425478;32;20368;-79
2022/04/22 03:55:42;;;;;;;23.23;12.32;;;;;;;13.31;54.53;97114.97;4425488;32;20082;-79
2022/04/22 03:58:10;;;;;;;22.40;11.63;;;;;;;14.16;52.86;97111.56;4425396;32;20136;-79
2022/04/22 04:00:39;;;;;;;25.48;12.52;;;;;;;13.80;52.28;97103.78;4425591;32;20090;-79
2022/04/22 04:03:09;;;;;;;23.75;12.05;;;;;;;13.03;55.95;97090.91;4425747;32;20145;-79
2022/04/22 04:05:37;;;;;;;21.77;11.12;;;;;;;13.51;56.99;97085.94;4424487;32;20111;-79
2022/04/22 04:08:05;;;;;;;22.42;10.95;;;;;;;12.51;59.88;97077.22;4425108;32;20399;-79
2022/04/22 04:16:04;;;;;;;25.90;11.90;;;;;;;12.28;57.26;97089.06;4425454;32;20103;-78
2022/04/22 04:18:33;;;;;;;24.80;11.40;;;;;;;12.25;58.46;97097.84;4425528;32;20104;-79
2022/04/22 04:23:46;;;;;;;24.58;11.18;;;;;;;13.26;54.77;97107.50;4425590;32;20137;-77
2022/04/22 04:26:14;;;;;;;22.42;11.57;;;;;;;14.16;51.11;97095.97;4424922;32;20604;-77
2022/04/22 04:28:43;;;;;;;22.27;11.27;;;;;;;14.31;51.32;97096.63;4425350;32;20093;-78
2022/04/22 04:31:13;;;;;;;24.55;11.70;;;;;;;14.33;52.16;97109.50;4425411;32;20415;-79
2022/04/22 04:33:41;;;;;;;22.77;10.93;;;;;;;14.90;49.95;97103.59;4425205;32;20094;-78
2022/04/22 04:36:14;;;;;;;21.00;10.63;;;;;;;13.76;52.91;97092.81;4425375;32;20089;-76
2022/04/22 04:38:42;;;;;;;24.65;11.30;;;;;;;13.92;52.32;97097.72;4425238;32;20150;-76
2022/04/22 04:41:09;;;;;;;23.75;10.73;;;;;;;12.60;56.42;97095.53;4424774;32;20168;-77
2022/04/22 04:43:38;;;;;;;24.40;11.45;;;;;;;13.28;54.23;97104.81;4411513;32;20122;-76
2022/04/22 04:46:05;;;;;;;22.55;11.00;;;;;;;15.05;48.92;97107.63;4424997;32;20123;-79
2022/04/22 04:48:34;;;;;;;22.08;11.35;;;;;;;15.06;48.68;97109.25;4424775;32;20081;-79
2022/04/22 04:51:01;;;;;;;22.55;11.23;;;;;;;14.70;49.61;97113.69;4411375;32;20607;-79
2022/04/22 04:53:28;;;;;;;24.25;11.15;;;;;;;14.23;51.05;97109.31;4425239;32;20105;-79
2022/04/22 04:55:55;;;;;;;23.35;12.05;;;;;;;14.40;50.89;97101.16;4424493;32;20086;-79
2022/04/22 04:58:22;;;;;;;22.77;11.02;;;;;;;15.06;48.84;97101.47;4425131;32;20103;-79
2022/04/22 05:00:49;;;;;;;22.33;11.98;;;;;;;15.24;48.71;97107.06;4411578;32;20106;-79
2022/04/22 05:03:16;;;;;;;20.55;11.60;;;;;;;15.97;46.06;97106.56;4424981;32;20429;-78
2022/04/22 05:05:43;;;;;;;22.50;11.35;;;;;;;15.45;48.05;97104.56;4425168;32;20129;-79
2022/04/22 05:08:10;;;;;;;24.75;12.57;;;;;;;13.78;54.32;97097.87;4424676;32;20138;-79
2022/04/22 05:10:37;;;;;;;20.98;10.98;;;;;;;14.16;54.38;97098.59;4425112;32;20396;-79
2022/04/22 05:13:04;;;;;;;26.52;11.63;;;;;;;13.49;52.02;97098.16;4411398;32;20456;-79
2022/04/22 05:15:32;;;;;;;25.83;11.50;;;;;;;13.76;52.44;97098.00;4424594;32;20097;-79
2022/04/22 05:18:02;;;;;;;26.65;11.45;;;;;;;13.33;53.26;97100.16;4410736;32;20082;-79
2022/04/22 05:20:32;;;;;;;22.33;11.00;;;;;;;13.77;51.15;97102.25;4411724;32;20103;-79
2022/04/22 05:22:59;;;;;;;25.37;10.93;;;;;;;13.93;51.53;97098.56;4424845;32;20108;-79
2022/04/22 05:25:26;;;;;;;25.62;12.50;;;;;;;13.28;53.16;97103.03;4424852;32;20085;-79
2022/04/22 05:27:53;;;;;;;22.67;12.40;;;;;;;13.43;54.10;97102.94;4424957;32;20559;-79
2022/04/22 05:33:06;;;;;;;26.23;11.90;;;;;;;15.01;50.84;97101.00;4425050;32;20129;-79
2022/04/22 05:35:33;;;;;;;23.98;12.23;;;;;;;13.60;53.87;97100.81;4424848;32;20151;-79
2022/04/22 05:38:05;;;;;;;24.95;12.15;;;;;;;13.20;54.44;97096.75;4424452;32;20090;-79
2022/04/22 05:40:36;;;;;;;23.52;12.30;;;;;;;12.12;58.59;97099.53;4424791;32;20155;-79
2022/04/22 05:43:05;;;;;;;26.87;13.20;;;;;;;12.16;57.89;97098.44;4424883;32;20113;-78
2022/04/22 05:45:32;;;;;;;25.37;13.05;;;;;;;11.29;61.93;97102.09;4424515;32;20436;-78
2022/04/22 05:47:59;;;;;;;29.10;13.62;;;;;;;11.86;60.07;97104.63;4411008;32;20362;-78
2022/04/22 05:50:27;;;;;;;25.55;13.00;;;;;;;12.91;56.44;97103.88;4424531;32;20169;-78
2022/04/22 05:52:55;;;;;;;27.33;13.43;;;;;;;13.50;55.19;97104.97;4424748;32;20149;-79
2022/04/22 05:55:29;;;;;;;29.40;13.48;;;;;;;14.06;52.94;97094.16;4424433;32;20162;-80
2022/04/22 05:57:57;;;;;;;24.23;13.35;;;;;;;13.41;55.91;97087.50;4424321;32;20081;-80
2022/04/22 06:00:26;;;;;;;27.70;13.60;;;;;;;12.89;58.21;97090.19;4424670;32;20222;-80
2022/04/22 06:02:55;;;;;;;25.12;14.10;;;;;;;13.09;58.72;97094.88;4424378;32;20094;-79
2022/04/22 06:05:23;;;;;;;26.17;14.70;;;;;;;14.35;53.75;97095.44;4424021;32;20559;-79
2022/04/22 06:10:31;;;;;;;25.25;13.45;;;;;;;14.66;53.41;97098.44;4424407;32;20082;-80
2022/04/22 06:10:44;;;;;;;26.37;14.45;;;;;;;14.53;53.12;97090.72;4424473;32;20133;-81
2022/04/22 06:13:11;;;;;;;28.12;13.40;;;;;;;14.12;55.44;97086.75;4410481;32;20102;-81
2022/04/22 06:15:38;;;;;;;26.10;13.68;;;;;;;13.26;59.05;97084.19;4424281;32;20089;-80
2022/04/22 06:18:05;;;;;;;26.30;13.75;;;;;;;13.57;60.66;97087.25;4424381;32;20090;-80
2022/04/22 06:20:32;;;;;;;27.77;13.32;;;;;;;14.56;56.40;97092.25;4421885;32;20113;-81
2022/04/22 06:23:00;;;;;;;25.10;12.70;;;;;;;14.97;55.46;97095.19;4424583;32;20149;-80
2022/04/22 06:25:28;;;;;;;21.37;10.77;;;;;;;15.56;53.94;97107.16;4423933;32;20085;-82
2022/04/22 06:27:56;;;;;;;24.87;11.90;;;;;;;15.81;52.46;97100.91;4424399;32;20512;-81
2022/04/22 06:30:24;;;;;;;26.85;13.80;;;;;;;13.63;59.16;97104.16;4425391;32;20494;-82
2022/04/22 06:32:53;;;;;;;24.85;14.02;;;;;;;13.84;59.08;97107.84;4413166;32;20101;-78
2022/04/22 06:35:23;;;;;;;25.90;13.50;;;;;;;13.69;61.63;97099.34;4426182;32;20130;-78
2022/04/22 06:37:54;;;;;;;25.35;12.15;;;;;;;13.93;61.11;97096.81;4425936;32;20487;-78
2022/04/22 06:45:54;;;;;;;27.10;12.65;;;;;;;11.91;70.20;97093.16;4415310;32;20117;-78
2022/04/22 06:48:30;;;;;;;26.50;12.02;;;;;;;11.93;71.29;97086.97;4412408;32;20081;-78
2022/04/22 06:51:13;;;;;;;22.13;11.40;;;;;;;12.44;69.14;97079.34;4415074;32;20116;-78
2022/04/22 06:53:41;;;;;;;19.27;8.93;;;;;;;12.61;68.55;97075.66;4404112;32;20421;-77
2022/04/22 06:56:08;;;;;;;25.12;11.73;;;;;;;12.68;68.00;97076.94;4396519;32;20093;-79
2022/04/22 06:58:37;;;;;;;21.77;11.02;;;;;;;12.63;68.64;97072.03;4398471;32;20113;-79
2022/04/22 07:01:07;;;;;;;26.27;12.27;;;;;;;12.66;67.91;97076.22;4395530;32;20098;-77
2022/04/22 07:03:54;;;;;;;24.30;10.70;;;;;;;11.93;70.53;97073.22;4395585;32;20111;-77
2022/04/22 07:06:21;;;;;;;22.37;10.73;;;;;;;12.38;69.32;97072.00;4381883;32;20108;-77
2022/04/22 07:08:49;;;;;;;26.95;13.38;;;;;;;12.68;67.63;97079.53;4395240;32;20087;-77
2022/04/22 07:11:24;;;;;;;29.30;12.43;;;;;;;11.96;71.48;97083.38;4395654;32;20099;-77
2022/04/22 07:13:57;;;;;;;26.02;13.05;;;;;;;12.51;67.98;97066.84;4381886;32;20115;-78
2022/04/22 07:16:24;;;;;;;29.40;12.35;;;;;;;11.86;72.27;97065.84;4395398;32;20153;-80
2022/04/22 07:18:55;;;;;;;31.27;13.68;;;;;;;11.65;74.18;97069.75;4394904;32;20160;-80
2022/04/22 07:21:22;;;;;;;27.15;12.02;;;;;;;11.60;74.32;97064.06;4395760;32;20134;-79
2022/04/22 07:23:50;;;;;;;18.45;8.27;;;;;;;11.59;74.18;97054.66;4396668;32;20115;-81
2022/04/22 07:26:19;;;;;;;16.55;6.50;;;;;;;11.12;75.62;97049.81;4397973;32;20579;-81
2022/04/22 07:28:56;;;;;;;13.85;6.28;;;;;;;11.08;76.83;97046.59;4397045;32;20083;-81
2022/04/22 07:31:28;;;;;;;22.55;11.05;;;;;;;11.14;76.07;97040.22;4388853;32;20079;-81
2022/04/22 07:33:55;;;;;;;21.20;10.93;;;;;;;10.28;81.56;97044.47;4403158;32;20115;-80
2022/04/22 07:36:35;;;;;;;23.15;11.48;;;;;;;10.54;80.71;97046.38;4402192;32;20058;-82
2022/04/22 07:39:13;;;;;;;20.48;10.02;;;;;;;10.83;80.97;97038.66;4415394;32;20134;-82
2022/04/22 07:41:40;;;;;;;27.33;12.60;;;;;;;10.42;82.74;97039.34;4412907;32;20098;-83
2022/04/22 07:46:58;;;;;;;26.00;13.55;;;;;;;10.56;82.75;97039.38;4418581;32;20090;-82
2022/04/22 07:49:26;;;;;;;27.20;13.18;;;;;;;10.90;82.66;97024.47;4422101;32;20126;-82
2022/04/22 07:51:53;;;;;;;28.92;13.65;;;;;;;10.18;85.06;97022.66;4412671;32;20071;-84
2022/04/22 07:54:26;;;;;;;25.20;11.43;;;;;;;9.96;87.75;97025.62;4418696;32;20237;-82
2022/04/22 07:56:53;;;;;;;28.92;13.25;;;;;;;9.78;88.59;97024.91;4425547;32;20058;-83
2022/04/22 07:59:24;;;;;;;25.35;11.80;;;;;;;9.75;88.77;97012.22;4428894;32;20126;-78
2022/04/22 08:01:51;;;;;;;25.88;11.52;;;;;;;9.44;92.60;97002.78;4412201;32;20140;-78
2022/04/22 08:04:18;;;;;;;30.67;13.23;;;;;;;8.97;94.21;97001.84;4426528;32;20120;-78
2022/04/22 08:06:46;;;;;;;30.92;15.23;;;;;;;9.54;93.82;97002.19;4426162;32;20082;-80
2022/04/22 08:09:33;;;;;;;;;;;;;;;9.37;94.52;97010.03;4430407;32;20061;-81
2022/04/22 08:12:01;;;;;;;33.22;15.85;;;;;;;10.24;91.14;97004.31;4435478;32;19970;-82
2022/04/22 08:14:28;;;;;;;30.12;13.52;;;;;;;10.66;89.09;97008.72;4421098;32;20081;-82
2022/04/22 08:16:55;;;;;;;30.75;14.48;;;;;;;10.44;88.58;97014.31;4433316;32;20098;-83
2022/04/22 08:19:23;;;;;;;26.98;13.02;;;;;;;11.20;84.90;97009.69;4432556;32;20142;-83
2022/04/22 08:21:50;;;;;;;30.98;14.73;;;;;;;11.62;83.81;97012.28;4427957;32;20442;-83
2022/04/22 08:24:17;;;;;;;30.10;15.05;;;;;;;11.40;84.23;97010.22;4427447;32;20115;-74
2022/04/22 08:26:45;;;;;;;30.08;13.75;;;;;;;11.68;83.64;96999.78;4425094;32;20111;-76
2022/04/22 08:29:17;;;;;;;26.77;14.57;;;;;;;11.20;85.84;96991.63;4430940;32;20078;-83
2022/04/22 08:31:45;;;;;;;27.13;13.93;;;;;;;10.79;87.14;96988.97;4435038;32;20524;-83
2022/04/22 08:34:13;;;;;;;31.02;14.75;;;;;;;11.27;86.99;96989.47;4419325;32;20504;-83
2022/04/22 08:36:39;;;;;;;26.20;12.50;;;;;;;10.84;88.55;96991.28;4430457;32;20094;-83
2022/04/22 08:39:06;;;;;;;25.10;12.63;;;;;;;9.88;93.68;96977.09;4428268;32;20108;-83
2022/04/22 08:41:35;;;;;;;33.90;16.23;;;;;;;9.36;97.49;96974.91;4427260;32;20501;-84
2022/04/22 08:44:02;;;;;;;26.48;11.48;;;;;;;8.79;100.00;96965.97;4414430;32;20105;-84
2022/04/22 08:52:02;;;;;;;29.90;13.65;;;;;;;9.22;99.20;96960.19;4427583;32;20156;-83
2022/04/22 08:54:29;;;;;;;26.70;12.30;;;;;;;9.06;99.20;96940.53;4429503;32;20117;-83
2022/04/22 08:56:56;;;;;;;27.90;12.57;;;;;;;8.69;100.00;96947.63;4430980;32;20104;-84
2022/04/22 08:59:25;;;;;;;26.45;12.50;;;;;;;9.14;99.96;96952.03;4430966;32;20090;-84
2022/04/22 09:01:56;;;;;;;31.77;15.02;;;;;;;9.16;100.00;96945.09;4428882;32;20243;-84
2022/04/22 09:04:28;;;;;;;30.95;15.43;;;;;;;9.24;100.00;96942.06;4430241;32;20128;-84
2022/04/22 09:06:56;;;;;;;21.85;10.50;;;;;;;9.37;99.19;96950.81;4429576;32;20110;-83
2022/04/22 09:09:24;;;;;;;31.10;15.20;;;;;;;9.45;98.40;96933.16;4418534;32;20070;-82
2022/04/22 09:12:12;;;;;;;26.02;12.20;;;;;;;9.49;97.75;96937.25;4434249;32;20101;-82
2022/04/22 09:18:26;;;;;;;26.60;12.73;;;;;;;10.16;93.96;96935.13;4567352;26;20128;-83
2022/04/22 09:21:16;;;;;;;28.35;14.35;;;;;;;9.80;96.42;96912.34;4438148;32;20076;-83
2022/04/22 09:24:13;;;;;;;28.10;13.90;;;;;;;9.94;96.02;96925.25;4434700;32;20081;-81
2022/04/22 09:26:40;;;;;;;35.28;15.63;;;;;;;9.79;98.19;96924.38;4435510;32;20062;-83
2022/04/22 09:29:10;;;;;;;35.67;17.65;;;;;;;9.77;96.42;96889.31;4437396;32;20070;-83
2022/04/22 09:31:47;;;;;;;30.60;16.02;;;;;;;9.51;97.95;96871.03;4423149;32;20150;-84
2022/04/22 09:34:14;;;;;;;;;;;;;;;10.10;97.23;96913.13;4424916;32;20073;-84
2022/04/22 09:45:03;;;;;;;36.00;18.65;;;;;;;10.47;95.37;96910.97;4418330;32;20119;-85
2022/04/22 09:47:32;;;;;;;32.33;16.02;;;;;;;10.41;95.97;96911.31;4414786;32;20476;-86
2022/04/22 09:50:00;;;;;;;30.65;14.95;;;;;;;9.95;98.21;96887.41;4415971;32;20106;-87
2022/04/22 09:52:31;;;;;;;28.98;14.80;;;;;;;10.33;97.88;96885.19;4433982;32;20105;-86
2022/04/22 09:55:02;;;;;;;40.15;17.77;;;;;;;9.76;100.00;96873.03;4429507;32;20107;-87
2022/04/22 09:58:03;;;;;;;34.65;16.30;;;;;;;9.95;100.00;96869.37;4430927;32;20800;-86
2022/04/22 10:00:31;;;;;;;22.40;11.93;;;;;;;10.57;97.93;96875.94;4400109;32;20577;-86
2022/04/22 10:02:58;;;;;;;27.58;12.27;;;;;;;10.67;97.70;96883.97;4411995;32;20137;-86
2022/04/22 10:05:27;;;;;;;30.20;15.15;;;;;;;10.82;97.38;96888.16;4426976;32;20210;-85
2022/04/22 10:07:57;;;;;;;31.67;16.67;;;;;;;10.72;97.15;96880.16;4426973;32;20121;-85
2022/04/22 10:10:32;;;;;;;32.33;15.05;;;;;;;10.51;98.62;96873.75;4413363;32;20098;-85
2022/04/22 10:13:01;;;;;;;33.03;15.95;;;;;;;10.17;100.00;96872.34;4431143;32;20107;-86
2022/04/22 10:15:31;;;;;;;32.92;17.23;;;;;;;10.47;100.00;96877.44;4413328;32;20166;-85
2022/04/22 10:17:59;;;;;;;32.25;15.65;;;;;;;10.31;100.00;96863.81;4413242;32;20136;-85
2022/04/22 10:20:27;;;;;;;30.95;14.40;;;;;;;10.28;100.00;96869.16;4426440;32;20197;-86
2022/04/22 10:22:54;;;;;;;33.22;15.52;;;;;;;10.35;100.00;96854.97;4412823;32;20164;-85
2022/04/22 10:25:30;;;;;;;32.05;17.73;;;;;;;10.09;100.00;96849.59;4428132;32;20743;-85
2022/04/22 10:27:59;;;;;;;30.40;16.45;;;;;;;10.27;100.00;96852.03;4419660;32;20102;-86
2022/04/22 10:30:27;;;;;;;29.52;12.43;;;;;;;10.61;100.00;96846.47;4407326;32;20157;-85
2022/04/22 10:32:56;;;;;;;36.63;18.62;;;;;;;11.02;100.00;96830.13;4422158;32;20058;-85
2022/04/22 10:35:24;;;;;;;29.52;14.43;;;;;;;10.77;100.00;96843.78;4419780;32;20089;-85
2022/04/22 10:37:52;;;;;;;33.38;16.30;;;;;;;10.60;100.00;96847.38;4431776;32;20170;-86
2022/04/22 10:40:21;;;;;;;40.47;15.50;;;;;;;11.13;100.00;96845.75;4473718;27;20110;-84
2022/04/22 10:42:49;;;;;;;39.83;18.17;;;;;;;11.25;99.73;96834.66;4423314;32;20093;-84
2022/04/22 10:48:29;;;;;;;34.47;16.52;;;;;;;10.82;100.00;96828.00;4402944;32;20097;-83
2022/04/22 10:51:01;;;;;;;32.80;15.35;;;;;;;11.10;100.00;96839.97;4413856;32;20063;-83
2022/04/22 10:53:33;;;;;;;31.35;15.55;;;;;;;11.22;100.00;96814.19;4387938;32;20085;-83
2022/04/22 10:56:25;;;;;;;30.92;15.00;;;;;;;10.75;100.00;96825.00;4416246;32;20114;-83
2022/04/22 10:59:20;;;;;;;35.08;17.10;;;;;;;11.01;100.00;96821.56;4418362;32;20165;-84
2022/04/22 11:01:48;;;;;;;31.90;16.40;;;;;;;11.85;100.00;96821.25;4416779;32;20082;-84
2022/04/22 11:04:24;;;;;;;34.10;15.05;;;;;;;12.40;97.30;96830.41;4418433;32;20086;-84
2022/04/22 11:06:51;;;;;;;34.80;17.85;;;;;;;12.39;96.58;96822.75;4412056;32;20108;-84
2022/04/22 11:09:26;;;;;;;30.52;15.38;;;;;;;12.00;98.26;96834.88;4412593;32;20085;-84
2022/04/22 11:11:54;;;;;;;35.70;18.65;;;;;;;12.73;95.29;96832.38;4412426;32;20166;-84
2022/04/22 11:14:25;;;;;;;29.85;13.25;;;;;;;12.68;94.29;96834.50;4412095;32;20080;-84
2022/04/22 11:16:54;;;;;;;31.77;17.02;;;;;;;12.14;96.65;96839.13;4401884;32;20098;-84
2022/04/22 11:19:21;;;;;;;30.08;16.00;;;;;;;12.26;97.80;96843.47;4403874;32;20071;-84
2022/04/22 11:21:53;;;;;;;;;;;;;;;12.55;95.78;96833.69;4412438;32;20145;-84
2022/04/22 11:24:20;;;;;;;34.97;18.25;;;;;;;12.78;94.72;96837.25;4412094;32;19970;-84
2022/04/22 11:26:48;;;;;;;33.92;18.17;;;;;;;12.74;94.43;96833.22;4411334;32;20149;-83
2022/04/22 11:29:16;;;;;;;29.08;14.87;;;;;;;12.61;94.86;96838.44;4410632;32;20170;-82
2022/04/22 11:31:56;;;;;;;28.55;15.45;;;;;;;12.73;94.79;96837.56;4410618;32;20441;-82
2022/04/22 11:34:47;;;;;;;28.08;15.18;;;;;;;12.74;94.54;96825.44;4396672;32;20141;-82
2022/04/22 11:37:18;;;;;;;24.02;13.60;;;;;;;12.78;94.33;96839.03;4410451;32;20170;-82
2022/04/22 11:39:49;;;;;;;29.37;13.75;;;;;;;12.31;96.44;96836.22;4410202;32;20101;-82
2022/04/22 11:42:18;;;;;;;29.37;14.45;;;;;;;12.65;95.75;96837.31;4410268;32;20104;-82
2022/04/22 11:45:03;;;;;;;32.85;16.92;;;;;;;12.38;95.80;96845.22;4396813;32;20153;-82
2022/04/22 11:47:31;;;;;;;30.10;16.70;;;;;;;12.28;96.35;96836.44;4396641;32;20177;-82
2022/04/22 11:49:59;;;;;;;33.80;15.20;;;;;;;12.37;95.22;96848.72;4410133;32;20536;-82
2022/04/22 11:52:32;;;;;;;26.10;11.57;;;;;;;12.42;97.81;96851.81;4410516;32;20082;-82
2022/04/22 11:55:06;;;;;;;;;;;;;;;12.51;95.92;96836.59;4410476;32;20380;-82
2022/04/22 11:57:37;;;;;;;30.77;14.60;;;;;;;12.32;96.63;96835.28;4410597;32;19997;-82
2022/04/22 12:05:51;;;;;;;31.83;16.62;;;;;;;12.65;94.36;96836.44;4410214;32;20181;-82
2022/04/22 12:08:19;;;;;;;34.47;18.37;;;;;;;12.79;95.11;96835.50;4410333;32;20500;-82
2022/04/22 12:10:48;;;;;;;35.35;18.55;;;;;;;11.88;98.54;96828.78;4396207;32;20106;-82
2022/04/22 12:13:16;;;;;;;38.92;19.48;;;;;;;11.75;99.86;96821.94;4410308;32;20116;-82
2022/04/22 12:15:46;;;;;;;43.05;17.62;;;;;;;11.59;100.00;96819.56;4409987;32;20112;-82
2022/04/22 12:18:34;;;;;;;36.90;17.27;;;;;;;12.29;97.01;96819.97;4398431;32;20094;-82
2022/04/22 12:21:02;;;;;;;36.20;18.42;;;;;;;12.19;97.97;96815.53;4410333;32;20149;-82
2022/04/22 12:23:43;;;;;;;36.50;17.62;;;;;;;12.34;96.89;96810.16;4383863;32;20153;-82
2022/04/22 12:26:18;;;;;;;31.02;16.55;;;;;;;12.36;96.24;96813.44;4396402;32;20145;-82
2022/04/22 12:29:11;;;;;;;33.72;17.55;;;;;;;12.29;97.35;96812.22;4409286;32;20422;-82